createdAt,value
2018-07-19T00:00:02.098Z,101331.34
2018-07-19T00:02:31.009Z,101326.89
2018-07-19T00:04:59.479Z,101332.04
2018-07-19T00:07:29.855Z,101332.02
2018-07-19T00:09:58.445Z,101332.53
2018-07-19T00:12:27.035Z,101328.69
2018-07-19T00:14:56.030Z,101327.67
2018-07-19T00:17:24.878Z,101330.41
2018-07-19T00:19:53.951Z,101331.72
2018-07-19T00:22:23.573Z,101332.32
2018-07-19T00:24:52.085Z,101335.47
2018-07-19T00:27:20.769Z,101337.56
2018-07-19T00:29:49.321Z,101333.84
2018-07-19T00:32:17.800Z,101337.05
2018-07-19T00:34:47.243Z,101334.28
2018-07-19T00:37:17.095Z,101339.85
2018-07-19T00:39:45.688Z,101337.53
2018-07-19T00:42:14.540Z,101342.56
2018-07-19T00:44:43.077Z,101336.92
2018-07-19T00:47:11.761Z,101339.48
2018-07-19T00:49:41.956Z,101349.20
2018-07-19T00:52:10.762Z,101336.77
2018-07-19T00:54:39.327Z,101343.39
2018-07-19T00:57:08.045Z,101341.26
2018-07-19T00:59:37.739Z,101341.64
2018-07-19T01:02:07.576Z,101334.16
2018-07-19T01:04:37.583Z,101337.55
2018-07-19T01:07:06.756Z,101335.11
2018-07-19T01:09:35.252Z,101343.98
2018-07-19T01:12:05.017Z,101337.27
2018-07-19T01:14:33.515Z,101337.96
2018-07-19T01:17:02.758Z,101334.05
2018-07-19T01:19:31.846Z,101335.88
2018-07-19T01:22:00.338Z,101337.63
2018-07-19T01:24:29.209Z,101340.09
2018-07-19T01:26:59.336Z,101340.04
2018-07-19T01:29:27.985Z,101332.14
2018-07-19T01:31:59.589Z,101342.22
2018-07-19T01:34:28.754Z,101339.74
2018-07-19T01:36:57.277Z,101331.36
2018-07-19T01:39:25.776Z,101337.95
2018-07-19T01:42:32.140Z,101331.36
2018-07-19T01:45:00.979Z,101331.36
2018-07-19T01:47:30.728Z,101328.16
2018-07-19T01:49:59.592Z,101334.30
2018-07-19T01:52:28.908Z,101331.46
2018-07-19T01:54:57.466Z,101326.26
2018-07-19T01:57:26.169Z,101331.18
2018-07-19T01:59:54.734Z,101323.21
2018-07-19T02:02:24.354Z,101323.58
2018-07-19T02:04:53.161Z,101333.99
2018-07-19T02:07:22.341Z,101327.38
2018-07-19T02:09:50.828Z,101326.27
2018-07-19T02:12:20.792Z,101326.75
2018-07-19T02:14:49.449Z,101332.06
2018-07-19T02:17:18.741Z,101337.70
2018-07-19T02:19:47.281Z,101337.20
2018-07-19T02:22:17.047Z,101329.80
2018-07-19T02:24:46.221Z,101334.91
2018-07-19T02:27:15.315Z,101339.25
2018-07-19T02:29:44.561Z,101333.28
2018-07-19T02:32:14.024Z,101340.37
2018-07-19T02:34:43.149Z,101340.98
2018-07-19T02:37:12.242Z,101339.01
2018-07-19T02:39:40.864Z,101335.98
2018-07-19T02:42:09.420Z,101342.29
2018-07-19T02:44:37.962Z,101339.41
2018-07-19T02:47:06.704Z,101342.78
2018-07-19T02:49:36.096Z,101347.58
2018-07-19T02:52:04.638Z,101342.30
2018-07-19T02:54:35.491Z,101343.41
2018-07-19T02:57:04.207Z,101347.05
2018-07-19T02:59:33.905Z,101341.86
2018-07-19T03:02:02.518Z,101340.73
2018-07-19T03:04:31.000Z,101339.66
2018-07-19T03:07:00.514Z,101335.75
2018-07-19T03:09:29.073Z,101342.32
2018-07-19T03:11:57.608Z,101344.25
2018-07-19T03:14:26.116Z,101349.22
2018-07-19T03:16:54.729Z,101352.98
2018-07-19T03:19:23.885Z,101346.84
2018-07-19T03:21:52.647Z,101350.36
2018-07-19T03:24:21.172Z,101347.34
2018-07-19T03:26:49.709Z,101349.43
2018-07-19T03:29:18.193Z,101353.00
2018-07-19T03:31:46.777Z,101351.42
2018-07-19T03:34:15.417Z,101345.48
2018-07-19T03:36:44.230Z,101350.05
2018-07-19T03:39:12.932Z,101349.72
2018-07-19T03:41:41.756Z,101350.38
2018-07-19T03:44:10.244Z,101352.75
2018-07-19T03:46:38.800Z,101350.95
2018-07-19T03:49:08.917Z,101352.27
2018-07-19T03:51:37.404Z,101352.64
2018-07-19T03:54:05.992Z,101359.05
2018-07-19T03:56:34.933Z,101352.47
2018-07-19T03:59:03.700Z,101359.62
2018-07-19T04:01:32.752Z,101361.65
2018-07-19T04:04:01.335Z,101350.45
2018-07-19T04:06:30.888Z,101356.74
2018-07-19T04:09:00.188Z,101356.16
2018-07-19T04:11:28.736Z,101353.58
2018-07-19T04:13:57.609Z,101355.94
2018-07-19T04:16:26.267Z,101354.00
2018-07-19T04:18:55.015Z,101357.88
2018-07-19T04:21:24.381Z,101361.80
2018-07-19T04:23:53.331Z,101359.78
2018-07-19T04:26:23.246Z,101358.48
2018-07-19T04:28:52.012Z,101360.64
2018-07-19T04:31:21.702Z,101364.89
2018-07-19T04:33:51.238Z,101358.23
2018-07-19T04:36:19.732Z,101360.62
2018-07-19T04:38:48.418Z,101364.18
2018-07-19T04:41:17.526Z,101371.95
2018-07-19T04:43:46.967Z,101370.01
2018-07-19T04:46:15.593Z,101371.63
2018-07-19T04:48:44.105Z,101369.66
2018-07-19T04:51:12.590Z,101372.40
2018-07-19T04:53:41.735Z,101380.67
2018-07-19T04:56:10.350Z,101377.31
2018-07-19T04:58:39.764Z,101377.78
2018-07-19T05:01:08.407Z,101379.02
2018-07-19T05:03:37.147Z,101377.08
2018-07-19T05:06:07.511Z,101376.23
2018-07-19T05:08:36.093Z,101379.77
2018-07-19T05:11:04.621Z,101380.61
2018-07-19T05:13:33.205Z,101380.13
2018-07-19T05:16:01.932Z,101383.73
2018-07-19T05:18:31.171Z,101386.70
2018-07-19T05:21:01.458Z,101388.41
2018-07-19T05:23:30.218Z,101387.55
2018-07-19T05:25:59.206Z,101391.75
2018-07-19T05:28:28.266Z,101387.41
2018-07-19T05:30:58.275Z,101390.33
2018-07-19T05:33:27.234Z,101390.27
2018-07-19T05:35:57.845Z,101385.62
2018-07-19T05:38:27.319Z,101389.08
2018-07-19T05:40:56.177Z,101388.16
2018-07-19T05:43:26.094Z,101387.86
2018-07-19T05:45:57.421Z,101395.16
2018-07-19T05:48:26.906Z,101394.73
2018-07-19T05:50:56.183Z,101395.95
2018-07-19T05:53:25.006Z,101394.48
2018-07-19T05:55:57.340Z,101388.50
2018-07-19T05:58:26.642Z,101391.03
2018-07-19T06:00:56.430Z,101389.01
2018-07-19T06:03:26.990Z,101380.69
2018-07-19T06:05:56.193Z,101378.52
2018-07-19T06:08:25.116Z,101385.44
2018-07-19T06:10:54.453Z,101392.36
2018-07-19T06:13:24.297Z,101386.75
2018-07-19T06:15:53.734Z,101391.08
2018-07-19T06:18:22.555Z,101390.64
2018-07-19T06:20:51.345Z,101394.67
2018-07-19T06:23:20.192Z,101396.68
2018-07-19T06:25:48.852Z,101400.92
2018-07-19T06:28:18.254Z,101400.85
2018-07-19T06:30:48.232Z,101395.73
2018-07-19T06:33:16.813Z,101398.30
2018-07-19T06:35:46.649Z,101400.70
2018-07-19T06:38:15.379Z,101399.16
2018-07-19T06:40:44.170Z,101395.47
2018-07-19T06:43:12.874Z,101393.12
2018-07-19T06:45:41.808Z,101389.13
2018-07-19T06:48:11.196Z,101391.95
2018-07-19T06:50:39.979Z,101392.59
2018-07-19T06:53:08.561Z,101397.52
2018-07-19T06:55:37.455Z,101394.89
2018-07-19T06:58:06.290Z,101397.30
2018-07-19T07:00:35.517Z,101395.91
2018-07-19T07:03:04.575Z,101397.27
2018-07-19T07:05:33.165Z,101398.31
2018-07-19T07:08:02.108Z,101397.72
2018-07-19T07:10:30.755Z,101394.13
2018-07-19T07:12:59.449Z,101387.90
2018-07-19T07:15:28.226Z,101385.14
2018-07-19T07:17:57.138Z,101382.91
2018-07-19T07:20:26.362Z,101382.34
2018-07-19T07:22:55.950Z,101380.95
2018-07-19T07:25:24.625Z,101380.25
2018-07-19T07:27:53.150Z,101386.48
2018-07-19T07:30:21.753Z,101386.89
2018-07-19T07:32:50.260Z,101386.70
2018-07-19T07:35:18.853Z,101383.44
2018-07-19T07:37:49.013Z,101388.43
2018-07-19T07:40:17.585Z,101389.87
2018-07-19T07:42:46.403Z,101391.02
2018-07-19T07:45:15.198Z,101387.86
2018-07-19T07:47:43.981Z,101388.55
2018-07-19T07:50:13.338Z,101388.99
2018-07-19T07:52:41.902Z,101384.59
2018-07-19T07:55:11.318Z,101389.91
2018-07-19T07:57:39.916Z,101390.02
2018-07-19T08:00:09.445Z,101381.03
2018-07-19T08:02:38.024Z,101384.14
2018-07-19T08:05:06.601Z,101374.30
2018-07-19T08:07:35.391Z,101374.93
2018-07-19T08:10:03.984Z,101371.69
2018-07-19T08:12:33.348Z,101371.38
2018-07-19T08:15:03.816Z,101369.77
2018-07-19T08:17:32.395Z,101374.73
2018-07-19T08:20:02.646Z,101364.11
2018-07-19T08:22:31.291Z,101359.70
2018-07-19T08:25:00.153Z,101366.13
2018-07-19T08:27:28.860Z,101369.97
2018-07-19T08:29:57.535Z,101369.23
2018-07-19T08:32:26.231Z,101366.74
2018-07-19T08:34:55.531Z,101374.92
2018-07-19T08:37:24.069Z,101364.30
2018-07-19T08:39:52.605Z,101366.19
2018-07-19T08:42:21.453Z,101365.83
2018-07-19T08:44:50.207Z,101364.27
2018-07-19T08:47:18.757Z,101361.90
2018-07-19T08:49:48.276Z,101363.53
2018-07-19T08:52:18.451Z,101361.11
2018-07-19T08:54:47.506Z,101363.11
2018-07-19T08:57:16.352Z,101361.10
2018-07-19T08:59:44.992Z,101368.25
2018-07-19T09:02:13.571Z,101364.20
2018-07-19T09:04:43.291Z,101363.58
2018-07-19T09:07:11.928Z,101360.83
2018-07-19T09:09:40.438Z,101360.78
2018-07-19T09:12:10.759Z,101364.78
2018-07-19T09:14:39.322Z,101364.02
2018-07-19T09:17:08.443Z,101359.37
2018-07-19T09:19:39.108Z,101363.86
2018-07-19T09:22:08.399Z,101358.76
2018-07-19T09:24:37.002Z,101360.23
2018-07-19T09:27:06.720Z,101355.98
2018-07-19T09:29:36.684Z,101358.16
2018-07-19T09:32:06.639Z,101364.33
2018-07-19T09:34:36.081Z,101356.51
2018-07-19T09:37:05.920Z,101356.77
2018-07-19T09:39:34.460Z,101359.52
2018-07-19T09:42:03.409Z,101348.30
2018-07-19T09:44:31.963Z,101344.83
2018-07-19T09:47:00.909Z,101347.91
2018-07-19T09:49:29.468Z,101351.10
2018-07-19T09:51:58.803Z,101350.24
2018-07-19T09:54:38.576Z,101350.86
2018-07-19T09:57:07.225Z,101346.52
2018-07-19T09:59:35.721Z,101353.45
2018-07-19T10:02:04.386Z,101345.37
2018-07-19T10:04:33.017Z,101345.93
2018-07-19T10:07:01.577Z,101347.23
2018-07-19T10:09:30.187Z,101343.84
2018-07-19T10:12:00.861Z,101343.39
2018-07-19T10:14:29.870Z,101347.20
2018-07-19T10:16:59.129Z,101348.25
2018-07-19T10:19:27.815Z,101352.34
2018-07-19T10:21:56.394Z,101338.75
2018-07-19T10:24:25.709Z,101335.72
2018-07-19T10:26:54.583Z,101342.08
2018-07-19T10:29:23.685Z,101337.89
2018-07-19T10:31:52.459Z,101336.36
2018-07-19T10:34:21.070Z,101340.08
2018-07-19T10:36:49.611Z,101330.68
2018-07-19T10:39:18.879Z,101339.00
2018-07-19T10:41:47.400Z,101325.39
2018-07-19T10:44:17.651Z,101331.34
2018-07-19T10:46:46.221Z,101337.36
2018-07-19T10:49:14.828Z,101325.86
2018-07-19T10:51:43.889Z,101322.41
2018-07-19T10:54:12.530Z,101325.55
2018-07-19T10:56:41.614Z,101317.41
2018-07-19T10:59:10.182Z,101318.00
2018-07-19T11:01:38.692Z,101314.97
2018-07-19T11:04:07.198Z,101312.97
2018-07-19T11:06:35.906Z,101308.45
2018-07-19T11:09:07.718Z,101302.56
2018-07-19T11:11:38.627Z,101308.58
2018-07-19T11:14:07.308Z,101305.64
2018-07-19T11:23:24.562Z,101307.72
2018-07-19T11:25:53.517Z,101302.33
2018-07-19T11:28:24.276Z,101292.27
2018-07-19T11:30:54.446Z,101286.27
2018-07-19T11:33:24.372Z,101289.64
2018-07-19T11:35:54.507Z,101294.17
2018-07-19T11:38:23.251Z,101293.01
2018-07-19T11:40:52.944Z,101291.14
2018-07-19T11:43:21.717Z,101287.86
2018-07-19T11:45:56.608Z,101287.61
2018-07-19T11:48:27.107Z,101277.16
2018-07-19T11:50:56.407Z,101282.53
2018-07-19T11:53:26.478Z,101280.17
2018-07-19T11:55:55.977Z,101283.02
2018-07-19T11:58:25.842Z,101272.02
2018-07-19T12:00:58.156Z,101258.90
2018-07-19T12:03:26.711Z,101263.50
2018-07-19T12:05:56.184Z,101264.59
2018-07-19T12:08:25.101Z,101254.44
2018-07-19T12:10:56.312Z,101250.63
2018-07-19T12:13:27.177Z,101256.83
2018-07-19T12:15:57.196Z,101243.70
2018-07-19T12:18:26.479Z,101254.84
2018-07-19T12:20:55.143Z,101252.92
2018-07-19T12:23:25.346Z,101256.99
2018-07-19T12:25:53.987Z,101245.20
2018-07-19T12:28:22.547Z,101248.16
2018-07-19T12:30:51.892Z,101234.88
2018-07-19T12:33:20.938Z,101236.91
2018-07-19T12:35:49.444Z,101234.19
2018-07-19T12:38:17.983Z,101232.30
2018-07-19T12:40:46.631Z,101236.48
2018-07-19T12:43:15.696Z,101234.42
2018-07-19T12:45:44.260Z,101226.50
2018-07-19T12:48:12.800Z,101230.63
2018-07-19T12:50:43.048Z,101226.54
2018-07-19T12:53:11.542Z,101230.97
2018-07-19T12:55:40.690Z,101223.37
2018-07-19T12:58:11.188Z,101215.49
2018-07-19T13:00:39.825Z,101225.58
2018-07-19T13:03:08.454Z,101232.86
2018-07-19T13:05:37.052Z,101226.91
2018-07-19T13:08:05.694Z,101222.38
2018-07-19T13:10:35.094Z,101227.11
2018-07-19T13:13:04.571Z,101227.98
2018-07-19T13:15:33.165Z,101224.89
2018-07-19T13:18:03.543Z,101224.69
2018-07-19T13:20:32.229Z,101229.34
2018-07-19T13:23:01.038Z,101225.07
2018-07-19T13:25:29.647Z,101219.31
2018-07-19T13:27:59.113Z,101221.62
2018-07-19T13:30:27.689Z,101212.42
2018-07-19T13:32:56.351Z,101211.30
2018-07-19T13:35:25.093Z,101213.66
2018-07-19T13:37:53.746Z,101214.47
2018-07-19T13:40:24.184Z,101210.91
2018-07-19T13:42:52.729Z,101219.11
2018-07-19T13:45:21.690Z,101211.48
2018-07-19T13:47:50.396Z,101212.98
2018-07-19T13:50:20.280Z,101203.55
2018-07-19T13:52:59.929Z,101207.02
2018-07-19T13:55:29.401Z,101210.97
2018-07-19T13:57:59.468Z,101204.92
2018-07-19T14:00:28.666Z,101195.36
2018-07-19T14:03:00.778Z,101196.37
2018-07-19T14:05:31.418Z,101204.46
2018-07-19T14:08:00.517Z,101204.94
2018-07-19T14:10:29.249Z,101195.02
2018-07-19T14:12:57.937Z,101200.03
2018-07-19T14:15:27.558Z,101200.98
2018-07-19T14:17:56.433Z,101189.86
2018-07-19T14:20:25.077Z,101191.64
2018-07-19T14:22:55.295Z,101185.18
2018-07-19T14:25:23.912Z,101188.25
2018-07-19T14:27:52.518Z,101183.65
2018-07-19T14:30:21.065Z,101182.20
2018-07-19T14:32:49.675Z,101180.93
2018-07-19T14:35:18.271Z,101180.94
2018-07-19T14:37:47.426Z,101180.73
2018-07-19T14:40:16.378Z,101174.48
2018-07-19T14:42:44.932Z,101186.81
2018-07-19T14:45:13.674Z,101182.80
2018-07-19T14:47:42.267Z,101180.98
2018-07-19T14:50:10.949Z,101177.26
2018-07-19T14:52:39.868Z,101179.84
2018-07-19T14:55:09.008Z,101178.38
2018-07-19T14:57:38.138Z,101174.59
2018-07-19T15:00:08.787Z,101178.48
2018-07-19T15:02:38.151Z,101176.20
2018-07-19T15:05:06.776Z,101168.98
2018-07-19T15:07:36.192Z,101176.88
2018-07-19T15:10:06.332Z,101172.77
2018-07-19T15:12:36.641Z,101175.97
2018-07-19T15:15:05.830Z,101173.17
2018-07-19T15:17:35.916Z,101171.06
2018-07-19T15:20:05.742Z,101172.42
2018-07-19T15:22:34.489Z,101167.34
2018-07-19T15:25:03.627Z,101163.95
2018-07-19T15:27:32.805Z,101160.99
2018-07-19T15:30:01.798Z,101157.09
2018-07-19T15:32:31.038Z,101157.50
2018-07-19T15:35:02.228Z,101155.48
2018-07-19T15:37:30.709Z,101153.19
2018-07-19T15:40:00.342Z,101156.52
2018-07-19T15:42:29.865Z,101147.62
2018-07-19T15:45:00.045Z,101153.02
2018-07-19T15:47:28.598Z,101147.38
2018-07-19T15:49:57.852Z,101147.59
2018-07-19T15:52:26.711Z,101139.25
2018-07-19T15:54:55.176Z,101145.87
2018-07-19T15:57:25.206Z,101138.30
2018-07-19T15:59:54.000Z,101140.22
2018-07-19T16:02:22.778Z,101136.47
2018-07-19T16:04:53.598Z,101131.30
2018-07-19T16:07:22.298Z,101133.28
2018-07-19T16:09:50.831Z,101130.03
2018-07-19T16:12:19.459Z,101128.02
2018-07-19T16:14:48.068Z,101126.11
2018-07-19T16:17:16.651Z,101121.25
2018-07-19T16:19:45.484Z,101123.66
2018-07-19T16:22:14.823Z,101129.03
2018-07-19T16:24:43.322Z,101119.38
2018-07-19T16:27:13.625Z,101126.95
2018-07-19T16:29:42.176Z,101126.61
2018-07-19T16:32:11.048Z,101126.08
2018-07-19T16:34:39.654Z,101120.99
2018-07-19T16:37:09.055Z,101132.17
2018-07-19T16:39:37.666Z,101123.77
2018-07-19T16:42:06.319Z,101122.82
2018-07-19T16:44:35.243Z,101116.80
2018-07-19T16:47:04.025Z,101115.45
2018-07-19T16:49:33.903Z,101115.57
2018-07-19T16:52:03.418Z,101126.85
2018-07-19T16:54:31.925Z,101120.91
2018-07-19T16:57:01.063Z,101126.95
2018-07-19T16:59:29.630Z,101117.16
2018-07-19T17:01:58.912Z,101121.94
2018-07-19T17:04:27.328Z,101116.58
2018-07-19T17:06:55.901Z,101125.19
2018-07-19T17:09:24.695Z,101117.41
2018-07-19T17:11:54.371Z,101116.39
2018-07-19T17:14:23.540Z,101117.33
2018-07-19T17:16:52.565Z,101114.55
2018-07-19T17:19:21.636Z,101118.62
2018-07-19T17:21:52.269Z,101116.32
2018-07-19T17:24:24.057Z,101115.42
2018-07-19T17:26:54.537Z,101115.66
2018-07-19T17:29:23.168Z,101116.77
2018-07-19T17:31:52.444Z,101119.77
2018-07-19T17:34:22.323Z,101123.09
2018-07-19T17:36:51.961Z,101121.88
2018-07-19T17:39:21.600Z,101119.73
2018-07-19T17:41:50.128Z,101119.55
2018-07-19T17:44:18.745Z,101118.61
2018-07-19T17:46:47.553Z,101109.20
2018-07-19T17:49:16.322Z,101115.99
2018-07-19T17:51:45.083Z,101117.24
2018-07-19T17:54:15.327Z,101107.87
2018-07-19T17:56:44.040Z,101106.69
2018-07-19T17:59:13.695Z,101106.04
2018-07-19T18:01:43.337Z,101106.02
2018-07-19T18:04:12.202Z,101107.64
2018-07-19T18:06:40.777Z,101100.39
2018-07-19T18:09:10.795Z,101101.98
2018-07-19T18:11:40.120Z,101102.91
2018-07-19T18:14:11.740Z,101096.52
2018-07-19T18:16:42.215Z,101104.42
2018-07-19T18:19:10.836Z,101102.14
2018-07-19T18:21:40.519Z,101102.95
2018-07-19T18:24:09.202Z,101100.80
2018-07-19T18:26:38.011Z,101102.20
2018-07-19T18:29:07.201Z,101098.70
2018-07-19T18:31:35.843Z,101098.89
2018-07-19T18:34:05.004Z,101102.36
2018-07-19T18:36:33.623Z,101103.20
2018-07-19T18:39:03.191Z,101104.76
2018-07-19T18:41:32.188Z,101106.72
2018-07-19T18:44:01.956Z,101104.06
2018-07-19T18:46:30.552Z,101109.09
2018-07-19T18:49:00.292Z,101104.01
2018-07-19T18:51:30.431Z,101102.09
2018-07-19T18:53:59.702Z,101108.93
2018-07-19T18:56:28.298Z,101105.91
2018-07-19T18:58:56.931Z,101109.19
2018-07-19T19:01:25.797Z,101106.70
2018-07-19T19:03:55.355Z,101106.02
2018-07-19T19:06:24.262Z,101107.91
2018-07-19T19:08:52.956Z,101110.96
2018-07-19T19:11:22.260Z,101112.63
2018-07-19T19:13:51.877Z,101118.31
2018-07-19T19:16:21.232Z,101114.32
2018-07-19T19:18:50.432Z,101111.94
2018-07-19T19:21:19.616Z,101111.22
2018-07-19T19:23:48.377Z,101111.24
2018-07-19T19:26:18.457Z,101114.28
2018-07-19T19:28:47.952Z,101114.72
2018-07-19T19:31:17.884Z,101116.34
2018-07-19T19:33:47.637Z,101119.77
2018-07-19T19:36:17.719Z,101120.56
2018-07-19T19:38:46.280Z,101116.16
2018-07-19T19:41:15.842Z,101119.98
2018-07-19T19:43:44.689Z,101124.15
2018-07-19T19:46:14.179Z,101121.03
2018-07-19T19:48:47.165Z,101123.52
2018-07-19T19:51:16.242Z,101119.51
2018-07-19T19:53:46.367Z,101121.44
2018-07-19T19:56:14.961Z,101117.03
2018-07-19T19:58:44.629Z,101111.00
2018-07-19T20:01:13.343Z,101112.47
2018-07-19T20:03:42.353Z,101110.38
2018-07-19T20:06:10.992Z,101111.92
2018-07-19T20:08:40.311Z,101107.05
2018-07-19T20:11:09.010Z,101109.69
2018-07-19T20:13:37.647Z,101104.80
2018-07-19T20:16:44.664Z,101108.86
2018-07-19T20:19:38.661Z,101112.31
2018-07-19T20:33:34.302Z,101115.20
2018-07-19T20:36:03.305Z,101122.83
2018-07-19T20:38:32.532Z,101115.66
2018-07-19T20:41:01.098Z,101117.88
2018-07-19T20:43:29.986Z,101115.66
2018-07-19T20:45:58.866Z,101118.95
2018-07-19T20:48:27.487Z,101116.47
2018-07-19T20:50:56.079Z,101118.05
2018-07-19T20:53:27.017Z,101115.81
2018-07-19T20:55:55.562Z,101116.88
2018-07-19T20:58:24.672Z,101120.55
2018-07-19T21:00:54.298Z,101121.55
2018-07-19T21:03:25.318Z,101119.53
2018-07-19T21:05:58.977Z,101119.19
2018-07-19T21:08:28.476Z,101115.71
2018-07-19T21:11:00.342Z,101121.16
2018-07-19T21:13:29.976Z,101116.11
2018-07-19T21:15:59.541Z,101117.48
2018-07-19T21:18:28.001Z,101115.91
2018-07-19T21:20:56.969Z,101120.92
2018-07-19T21:23:26.779Z,101120.18
2018-07-19T21:25:56.890Z,101119.95
2018-07-19T21:28:25.996Z,101117.08
2018-07-19T21:30:55.357Z,101113.80
2018-07-19T21:33:24.482Z,101116.61
2018-07-19T21:35:54.255Z,101115.89
2018-07-19T21:38:22.749Z,101118.73
2018-07-19T21:40:51.564Z,101115.72
2018-07-19T21:43:20.953Z,101121.60
2018-07-19T21:45:49.496Z,101120.64
2018-07-19T21:48:18.076Z,101126.78
2018-07-19T21:50:46.687Z,101132.20
2018-07-19T21:53:15.516Z,101131.58
2018-07-19T21:55:44.094Z,101136.81
2018-07-19T21:58:13.317Z,101135.23
2018-07-19T22:00:47.210Z,101137.90
2018-07-19T22:03:15.767Z,101141.11
2018-07-19T22:05:45.240Z,101138.22
2018-07-19T22:08:13.771Z,101141.29
2018-07-19T22:10:43.241Z,101139.66
2018-07-19T22:13:12.080Z,101133.36
2018-07-19T22:15:44.754Z,101144.86
2018-07-19T22:18:14.101Z,101148.78
2018-07-19T22:20:43.724Z,101152.58
2018-07-19T22:23:12.396Z,101158.58
2018-07-19T22:25:41.039Z,101153.66
2018-07-19T22:28:10.723Z,101164.80
2018-07-19T22:30:40.969Z,101169.48
2018-07-19T22:33:10.312Z,101168.34
2018-07-19T22:35:39.279Z,101169.45
2018-07-19T22:38:08.725Z,101165.30
2018-07-19T22:40:37.273Z,101164.66
2018-07-19T22:43:05.960Z,101169.16
2018-07-19T22:45:34.478Z,101169.37
2018-07-19T22:48:04.627Z,101167.91
2018-07-19T22:50:34.357Z,101163.22
2018-07-19T22:53:03.308Z,101156.23
2018-07-19T22:55:31.768Z,101158.77
2018-07-19T22:58:00.478Z,101159.62
2018-07-19T23:00:29.017Z,101158.39
2018-07-19T23:02:57.906Z,101161.95
2018-07-19T23:05:27.099Z,101160.72
2018-07-19T23:07:55.780Z,101158.69
2018-07-19T23:10:24.471Z,101156.20
2018-07-19T23:12:53.581Z,101153.58
2018-07-19T23:15:22.157Z,101158.85
2018-07-19T23:17:50.747Z,101155.46
2018-07-19T23:20:19.339Z,101160.61
2018-07-19T23:22:55.434Z,101162.82
2018-07-19T23:25:24.783Z,101158.89
2018-07-19T23:27:53.978Z,101162.37
2018-07-19T23:30:25.537Z,101155.79
2018-07-19T23:32:54.230Z,101151.15
2018-07-19T23:35:24.771Z,101149.96
2018-07-19T23:37:55.016Z,101147.42
2018-07-19T23:40:27.091Z,101145.59
2018-07-19T23:43:58.974Z,101143.10
2018-07-19T23:46:31.991Z,101138.58
2018-07-19T23:49:07.329Z,101141.11
2018-07-19T23:51:37.470Z,101138.64
2018-07-19T23:54:06.182Z,101140.23
2018-07-19T23:56:35.268Z,101132.27
2018-07-19T23:59:04.271Z,101131.64
